sensor_id;sensor_type;location;lat;lon;timestamp;P1;durP1;ratioP1;P2;durP2;ratioP2
43744;SDS011;29359;53.048;8.732;2023-02-03T00:01:30;13.68;;;5.85;;
43744;SDS011;29359;53.048;8.732;2023-02-03T00:03:31;14.02;;;6.13;;
43744;SDS011;29359;53.048;8.732;2023-02-03T00:05:33;11.52;;;5.88;;
43744;SDS011;29359;53.048;8.732;2023-02-03T00:07:36;8.80;;;4.78;;
43744;SDS011;29359;53.048;8.732;2023-02-03T00:09:39;9.63;;;4.82;;
43744;SDS011;29359;53.048;8.732;2023-02-03T00:11:41;12.25;;;5.20;;
43744;SDS011;29359;53.048;8.732;2023-02-03T00:13:42;11.05;;;5.38;;
43744;SDS011;29359;53.048;8.732;2023-02-03T00:15:44;8.15;;;4.55;;
43744;SDS011;29359;53.048;8.732;2023-02-03T00:17:46;10.50;;;5.03;;
43744;SDS011;29359;53.048;8.732;2023-02-03T00:19:47;8.57;;;4.78;;
43744;SDS011;29359;53.048;8.732;2023-02-03T00:21:50;11.20;;;5.50;;
43744;SDS011;29359;53.048;8.732;2023-02-03T00:23:51;8.63;;;5.28;;
43744;SDS011;29359;53.048;8.732;2023-02-03T00:25:54;10.00;;;5.00;;
43744;SDS011;29359;53.048;8.732;2023-02-03T00:27:56;7.55;;;5.00;;
43744;SDS011;29359;53.048;8.732;2023-02-03T00:29:58;9.95;;;4.75;;
43744;SDS011;29359;53.048;8.732;2023-02-03T00:31:59;11.65;;;4.88;;
43744;SDS011;29359;53.048;8.732;2023-02-03T00:34:01;7.38;;;4.65;;
43744;SDS011;29359;53.048;8.732;2023-02-03T00:36:03;6.78;;;4.65;;
43744;SDS011;29359;53.048;8.732;2023-02-03T00:38:06;8.18;;;4.55;;
43744;SDS011;29359;53.048;8.732;2023-02-03T00:40:07;7.13;;;4.32;;
43744;SDS011;29359;53.048;8.732;2023-02-03T00:42:09;9.77;;;4.15;;
43744;SDS011;29359;53.048;8.732;2023-02-03T00:44:11;8.43;;;4.43;;
43744;SDS011;29359;53.048;8.732;2023-02-03T00:46:12;9.00;;;4.82;;
43744;SDS011;29359;53.048;8.732;2023-02-03T00:48:14;6.18;;;3.78;;
43744;SDS011;29359;53.048;8.732;2023-02-03T00:50:15;8.23;;;4.35;;
43744;SDS011;29359;53.048;8.732;2023-02-03T00:52:17;10.30;;;4.88;;
43744;SDS011;29359;53.048;8.732;2023-02-03T00:54:19;4.22;;;3.15;;
43744;SDS011;29359;53.048;8.732;2023-02-03T00:56:20;9.80;;;3.70;;
43744;SDS011;29359;53.048;8.732;2023-02-03T00:58:22;5.85;;;3.67;;
43744;SDS011;29359;53.048;8.732;2023-02-03T01:00:23;7.57;;;3.55;;
43744;SDS011;29359;53.048;8.732;2023-02-03T01:02:25;7.50;;;3.97;;
43744;SDS011;29359;53.048;8.732;2023-02-03T01:04:27;7.40;;;3.30;;
43744;SDS011;29359;53.048;8.732;2023-02-03T01:06:28;8.52;;;4.22;;
43744;SDS011;29359;53.048;8.732;2023-02-03T01:08:30;4.50;;;3.10;;
43744;SDS011;29359;53.048;8.732;2023-02-03T01:10:32;5.63;;;2.70;;
43744;SDS011;29359;53.048;8.732;2023-02-03T01:12:33;5.10;;;3.00;;
43744;SDS011;29359;53.048;8.732;2023-02-03T01:14:35;7.03;;;2.92;;
43744;SDS011;29359;53.048;8.732;2023-02-03T01:16:36;8.82;;;3.10;;
43744;SDS011;29359;53.048;8.732;2023-02-03T01:18:39;4.70;;;2.70;;
43744;SDS011;29359;53.048;8.732;2023-02-03T01:20:41;9.52;;;3.30;;
43744;SDS011;29359;53.048;8.732;2023-02-03T01:22:42;4.78;;;2.63;;
43744;SDS011;29359;53.048;8.732;2023-02-03T01:24:44;11.43;;;3.45;;
43744;SDS011;29359;53.048;8.732;2023-02-03T01:26:45;7.25;;;3.05;;
43744;SDS011;29359;53.048;8.732;2023-02-03T01:28:51;5.05;;;2.72;;
43744;SDS011;29359;53.048;8.732;2023-02-03T01:30:54;7.93;;;3.22;;
43744;SDS011;29359;53.048;8.732;2023-02-03T01:32:56;9.93;;;3.25;;
43744;SDS011;29359;53.048;8.732;2023-02-03T01:34:57;7.18;;;3.53;;
43744;SDS011;29359;53.048;8.732;2023-02-03T01:36:59;9.90;;;3.90;;
43744;SDS011;29359;53.048;8.732;2023-02-03T01:39:00;11.48;;;3.20;;
43744;SDS011;29359;53.048;8.732;2023-02-03T01:41:03;6.50;;;3.15;;
43744;SDS011;29359;53.048;8.732;2023-02-03T01:43:08;5.63;;;3.30;;
43744;SDS011;29359;53.048;8.732;2023-02-03T01:45:11;9.68;;;3.72;;
43744;SDS011;29359;53.048;8.732;2023-02-03T01:47:27;11.68;;;3.47;;
43744;SDS011;29359;53.048;8.732;2023-02-03T01:49:30;10.27;;;3.40;;
43744;SDS011;29359;53.048;8.732;2023-02-03T01:51:37;9.02;;;3.45;;
43744;SDS011;29359;53.048;8.732;2023-02-03T01:53:41;7.03;;;3.30;;
43744;SDS011;29359;53.048;8.732;2023-02-03T01:55:45;12.95;;;3.03;;
43744;SDS011;29359;53.048;8.732;2023-02-03T01:57:51;7.63;;;3.08;;
43744;SDS011;29359;53.048;8.732;2023-02-03T01:59:58;7.65;;;2.97;;
43744;SDS011;29359;53.048;8.732;2023-02-03T02:02:01;7.60;;;3.40;;
43744;SDS011;29359;53.048;8.732;2023-02-03T02:04:05;9.95;;;3.50;;
43744;SDS011;29359;53.048;8.732;2023-02-03T02:06:08;8.68;;;3.42;;
43744;SDS011;29359;53.048;8.732;2023-02-03T02:08:11;7.50;;;3.78;;
43744;SDS011;29359;53.048;8.732;2023-02-03T02:10:14;7.63;;;3.38;;
43744;SDS011;29359;53.048;8.732;2023-02-03T02:12:15;11.23;;;3.38;;
43744;SDS011;29359;53.048;8.732;2023-02-03T02:14:17;5.18;;;3.28;;
43744;SDS011;29359;53.048;8.732;2023-02-03T02:18:43;5.13;;;3.30;;
43744;SDS011;29359;53.048;8.732;2023-02-03T02:21:31;9.18;;;3.88;;
43744;SDS011;29359;53.048;8.732;2023-02-03T02:31:01;8.45;;;3.58;;
43744;SDS011;29359;53.048;8.732;2023-02-03T02:35:28;4.75;;;3.50;;
43744;SDS011;29359;53.048;8.732;2023-02-03T02:38:54;9.15;;;3.33;;
43744;SDS011;29359;53.048;8.732;2023-02-03T02:47:15;8.73;;;3.30;;
43744;SDS011;29359;53.048;8.732;2023-02-03T02:49:20;6.55;;;2.45;;
43744;SDS011;29359;53.048;8.732;2023-02-03T02:51:28;5.30;;;2.50;;
43744;SDS011;29359;53.048;8.732;2023-02-03T02:53:33;6.38;;;2.75;;
43744;SDS011;29359;53.048;8.732;2023-02-03T02:55:38;8.73;;;2.40;;
43744;SDS011;29359;53.048;8.732;2023-02-03T02:57:42;5.95;;;2.70;;
43744;SDS011;29359;53.048;8.732;2023-02-03T02:59:46;8.07;;;2.47;;
43744;SDS011;29359;53.048;8.732;2023-02-03T03:01:48;5.43;;;2.17;;
43744;SDS011;29359;53.048;8.732;2023-02-03T03:03:49;5.22;;;2.67;;
43744;SDS011;29359;53.048;8.732;2023-02-03T03:06:02;8.00;;;2.42;;
43744;SDS011;29359;53.048;8.732;2023-02-03T03:08:08;3.40;;;2.20;;
43744;SDS011;29359;53.048;8.732;2023-02-03T03:10:15;5.78;;;3.08;;
43744;SDS011;29359;53.048;8.732;2023-02-03T03:12:25;4.88;;;1.95;;
43744;SDS011;29359;53.048;8.732;2023-02-03T03:14:32;5.53;;;1.85;;
43744;SDS011;29359;53.048;8.732;2023-02-03T03:16:37;7.45;;;2.10;;
43744;SDS011;29359;53.048;8.732;2023-02-03T03:18:45;4.97;;;2.25;;
43744;SDS011;29359;53.048;8.732;2023-02-03T03:20:52;4.32;;;2.50;;
43744;SDS011;29359;53.048;8.732;2023-02-03T03:22:58;4.05;;;2.22;;
43744;SDS011;29359;53.048;8.732;2023-02-03T03:25:05;8.02;;;2.65;;
43744;SDS011;29359;53.048;8.732;2023-02-03T03:27:24;6.30;;;2.50;;
43744;SDS011;29359;53.048;8.732;2023-02-03T03:31:38;6.80;;;2.38;;
43744;SDS011;29359;53.048;8.732;2023-02-03T03:33:41;6.30;;;2.58;;
43744;SDS011;29359;53.048;8.732;2023-02-03T03:37:54;2.83;;;2.22;;
43744;SDS011;29359;53.048;8.732;2023-02-03T03:40:01;5.97;;;2.72;;
43744;SDS011;29359;53.048;8.732;2023-02-03T03:42:20;8.20;;;2.80;;
43744;SDS011;29359;53.048;8.732;2023-02-03T03:44:32;6.75;;;2.40;;
43744;SDS011;29359;53.048;8.732;2023-02-03T03:48:55;4.95;;;1.90;;
43744;SDS011;29359;53.048;8.732;2023-02-03T03:51:03;3.92;;;2.33;;
43744;SDS011;29359;53.048;8.732;2023-02-03T03:53:09;7.00;;;2.22;;
43744;SDS011;29359;53.048;8.732;2023-02-03T03:55:14;10.65;;;2.50;;
43744;SDS011;29359;53.048;8.732;2023-02-03T03:57:38;9.23;;;2.67;;
43744;SDS011;29359;53.048;8.732;2023-02-03T03:59:46;3.10;;;1.83;;
43744;SDS011;29359;53.048;8.732;2023-02-03T04:01:49;6.45;;;2.70;;
43744;SDS011;29359;53.048;8.732;2023-02-03T04:03:54;7.60;;;2.50;;
43744;SDS011;29359;53.048;8.732;2023-02-03T04:06:00;9.43;;;2.67;;
43744;SDS011;29359;53.048;8.732;2023-02-03T04:08:02;6.03;;;2.50;;
43744;SDS011;29359;53.048;8.732;2023-02-03T04:10:04;9.40;;;3.03;;
43744;SDS011;29359;53.048;8.732;2023-02-03T04:14:21;6.97;;;3.67;;
43744;SDS011;29359;53.048;8.732;2023-02-03T04:16:22;6.22;;;3.33;;
43744;SDS011;29359;53.048;8.732;2023-02-03T04:18:24;7.75;;;3.00;;
43744;SDS011;29359;53.048;8.732;2023-02-03T04:20:26;4.47;;;2.38;;
43744;SDS011;29359;53.048;8.732;2023-02-03T04:22:31;8.68;;;3.83;;
43744;SDS011;29359;53.048;8.732;2023-02-03T04:24:33;5.63;;;2.58;;
43744;SDS011;29359;53.048;8.732;2023-02-03T04:26:34;7.00;;;2.70;;
43744;SDS011;29359;53.048;8.732;2023-02-03T04:28:36;8.02;;;2.47;;
43744;SDS011;29359;53.048;8.732;2023-02-03T04:30:37;8.27;;;2.88;;
43744;SDS011;29359;53.048;8.732;2023-02-03T04:32:39;6.22;;;2.83;;
43744;SDS011;29359;53.048;8.732;2023-02-03T04:34:41;7.70;;;2.60;;
43744;SDS011;29359;53.048;8.732;2023-02-03T04:36:42;6.47;;;2.53;;
43744;SDS011;29359;53.048;8.732;2023-02-03T04:38:44;7.70;;;2.90;;
43744;SDS011;29359;53.048;8.732;2023-02-03T04:40:45;7.38;;;2.80;;
43744;SDS011;29359;53.048;8.732;2023-02-03T04:42:47;7.22;;;2.70;;
43744;SDS011;29359;53.048;8.732;2023-02-03T04:44:48;5.25;;;2.40;;
43744;SDS011;29359;53.048;8.732;2023-02-03T04:46:50;5.50;;;2.88;;
43744;SDS011;29359;53.048;8.732;2023-02-03T04:48:51;5.05;;;2.47;;
43744;SDS011;29359;53.048;8.732;2023-02-03T04:50:53;6.00;;;2.90;;
43744;SDS011;29359;53.048;8.732;2023-02-03T04:52:54;9.27;;;2.65;;
43744;SDS011;29359;53.048;8.732;2023-02-03T04:54:56;6.05;;;2.40;;
43744;SDS011;29359;53.048;8.732;2023-02-03T04:56:57;14.80;;;3.30;;
43744;SDS011;29359;53.048;8.732;2023-02-03T04:58:59;5.45;;;2.15;;
43744;SDS011;29359;53.048;8.732;2023-02-03T05:01:04;5.47;;;2.10;;
43744;SDS011;29359;53.048;8.732;2023-02-03T05:03:08;10.40;;;2.42;;
43744;SDS011;29359;53.048;8.732;2023-02-03T05:05:09;3.65;;;1.65;;
43744;SDS011;29359;53.048;8.732;2023-02-03T05:07:11;8.30;;;2.78;;
43744;SDS011;29359;53.048;8.732;2023-02-03T05:09:13;9.50;;;2.65;;
43744;SDS011;29359;53.048;8.732;2023-02-03T05:11:14;7.35;;;2.40;;
43744;SDS011;29359;53.048;8.732;2023-02-03T05:13:16;8.75;;;2.05;;
43744;SDS011;29359;53.048;8.732;2023-02-03T05:15:17;6.15;;;2.38;;
43744;SDS011;29359;53.048;8.732;2023-02-03T05:17:19;10.13;;;2.25;;
43744;SDS011;29359;53.048;8.732;2023-02-03T05:19:20;7.10;;;2.22;;
43744;SDS011;29359;53.048;8.732;2023-02-03T05:21:22;8.52;;;2.30;;
43744;SDS011;29359;53.048;8.732;2023-02-03T05:23:23;12.35;;;2.55;;
43744;SDS011;29359;53.048;8.732;2023-02-03T05:25:25;10.85;;;2.30;;
43744;SDS011;29359;53.048;8.732;2023-02-03T05:27:26;14.32;;;2.38;;
43744;SDS011;29359;53.048;8.732;2023-02-03T05:29:28;10.00;;;2.58;;
43744;SDS011;29359;53.048;8.732;2023-02-03T05:31:29;9.90;;;2.28;;
43744;SDS011;29359;53.048;8.732;2023-02-03T05:33:31;9.13;;;2.60;;
43744;SDS011;29359;53.048;8.732;2023-02-03T05:35:32;8.30;;;2.80;;
43744;SDS011;29359;53.048;8.732;2023-02-03T05:37:34;8.15;;;3.53;;
43744;SDS011;29359;53.048;8.732;2023-02-03T05:39:36;13.88;;;2.58;;
43744;SDS011;29359;53.048;8.732;2023-02-03T05:41:37;12.68;;;2.15;;
43744;SDS011;29359;53.048;8.732;2023-02-03T05:43:57;5.90;;;1.95;;
43744;SDS011;29359;53.048;8.732;2023-02-03T05:46:05;10.77;;;2.88;;
43744;SDS011;29359;53.048;8.732;2023-02-03T05:48:07;5.90;;;2.22;;
43744;SDS011;29359;53.048;8.732;2023-02-03T05:50:09;13.77;;;2.50;;
43744;SDS011;29359;53.048;8.732;2023-02-03T05:52:11;5.55;;;1.70;;
43744;SDS011;29359;53.048;8.732;2023-02-03T05:54:12;6.57;;;2.50;;
43744;SDS011;29359;53.048;8.732;2023-02-03T05:56:14;10.07;;;2.72;;
43744;SDS011;29359;53.048;8.732;2023-02-03T05:58:16;6.65;;;2.28;;
43744;SDS011;29359;53.048;8.732;2023-02-03T06:00:17;5.82;;;2.40;;
43744;SDS011;29359;53.048;8.732;2023-02-03T06:02:21;9.15;;;2.20;;
43744;SDS011;29359;53.048;8.732;2023-02-03T06:04:23;5.90;;;2.15;;
43744;SDS011;29359;53.048;8.732;2023-02-03T06:06:24;9.90;;;2.35;;
43744;SDS011;29359;53.048;8.732;2023-02-03T06:08:27;11.20;;;2.20;;
43744;SDS011;29359;53.048;8.732;2023-02-03T06:10:28;6.10;;;2.25;;
43744;SDS011;29359;53.048;8.732;2023-02-03T06:12:30;8.30;;;2.50;;
43744;SDS011;29359;53.048;8.732;2023-02-03T06:14:32;10.18;;;2.55;;
43744;SDS011;29359;53.048;8.732;2023-02-03T06:16:34;7.57;;;2.20;;
43744;SDS011;29359;53.048;8.732;2023-02-03T06:18:35;10.48;;;2.38;;
43744;SDS011;29359;53.048;8.732;2023-02-03T06:20:36;7.80;;;2.13;;
43744;SDS011;29359;53.048;8.732;2023-02-03T06:22:38;11.02;;;2.85;;
43744;SDS011;29359;53.048;8.732;2023-02-03T06:24:40;11.45;;;2.85;;
43744;SDS011;29359;53.048;8.732;2023-02-03T06:26:41;6.63;;;2.50;;
43744;SDS011;29359;53.048;8.732;2023-02-03T06:28:42;6.72;;;3.00;;
43744;SDS011;29359;53.048;8.732;2023-02-03T06:30:44;11.70;;;3.17;;
43744;SDS011;29359;53.048;8.732;2023-02-03T06:32:46;7.15;;;2.45;;
43744;SDS011;29359;53.048;8.732;2023-02-03T06:34:48;6.50;;;2.55;;
43744;SDS011;29359;53.048;8.732;2023-02-03T06:36:50;8.65;;;2.90;;
43744;SDS011;29359;53.048;8.732;2023-02-03T06:38:51;13.57;;;2.45;;
43744;SDS011;29359;53.048;8.732;2023-02-03T06:40:53;9.95;;;3.15;;
43744;SDS011;29359;53.048;8.732;2023-02-03T06:42:54;8.98;;;3.08;;
43744;SDS011;29359;53.048;8.732;2023-02-03T06:44:56;12.15;;;2.67;;
43744;SDS011;29359;53.048;8.732;2023-02-03T06:46:57;7.35;;;2.85;;
43744;SDS011;29359;53.048;8.732;2023-02-03T06:48:59;7.22;;;2.15;;
43744;SDS011;29359;53.048;8.732;2023-02-03T06:51:00;8.30;;;2.65;;
43744;SDS011;29359;53.048;8.732;2023-02-03T06:53:02;7.88;;;2.00;;
43744;SDS011;29359;53.048;8.732;2023-02-03T06:55:04;11.65;;;2.33;;
43744;SDS011;29359;53.048;8.732;2023-02-03T06:57:06;7.53;;;2.35;;
43744;SDS011;29359;53.048;8.732;2023-02-03T06:59:08;10.05;;;2.00;;
43744;SDS011;29359;53.048;8.732;2023-02-03T07:01:10;8.00;;;1.90;;
43744;SDS011;29359;53.048;8.732;2023-02-03T07:03:11;8.48;;;2.10;;
43744;SDS011;29359;53.048;8.732;2023-02-03T07:05:13;4.85;;;1.75;;
43744;SDS011;29359;53.048;8.732;2023-02-03T07:07:14;8.88;;;2.28;;
43744;SDS011;29359;53.048;8.732;2023-02-03T07:09:16;8.02;;;2.10;;
43744;SDS011;29359;53.048;8.732;2023-02-03T07:11:18;8.35;;;2.22;;
43744;SDS011;29359;53.048;8.732;2023-02-03T07:13:19;7.85;;;2.88;;
43744;SDS011;29359;53.048;8.732;2023-02-03T07:15:21;7.43;;;2.30;;
43744;SDS011;29359;53.048;8.732;2023-02-03T07:17:23;5.97;;;2.17;;
43744;SDS011;29359;53.048;8.732;2023-02-03T07:19:24;6.80;;;1.90;;
43744;SDS011;29359;53.048;8.732;2023-02-03T07:21:26;7.28;;;1.85;;
43744;SDS011;29359;53.048;8.732;2023-02-03T07:23:27;7.20;;;2.20;;
43744;SDS011;29359;53.048;8.732;2023-02-03T07:25:29;6.75;;;2.03;;
43744;SDS011;29359;53.048;8.732;2023-02-03T07:27:31;9.57;;;1.95;;
43744;SDS011;29359;53.048;8.732;2023-02-03T07:29:33;6.60;;;1.65;;
43744;SDS011;29359;53.048;8.732;2023-02-03T07:31:34;7.70;;;2.03;;
43744;SDS011;29359;53.048;8.732;2023-02-03T07:33:36;7.07;;;1.73;;
43744;SDS011;29359;53.048;8.732;2023-02-03T07:35:38;7.38;;;2.13;;
43744;SDS011;29359;53.048;8.732;2023-02-03T07:37:40;6.53;;;1.83;;
43744;SDS011;29359;53.048;8.732;2023-02-03T07:39:43;12.35;;;2.83;;
43744;SDS011;29359;53.048;8.732;2023-02-03T07:41:46;8.20;;;1.52;;
43744;SDS011;29359;53.048;8.732;2023-02-03T07:43:47;8.38;;;1.92;;
43744;SDS011;29359;53.048;8.732;2023-02-03T07:45:49;6.75;;;1.88;;
43744;SDS011;29359;53.048;8.732;2023-02-03T07:47:50;6.68;;;1.80;;
43744;SDS011;29359;53.048;8.732;2023-02-03T07:49:52;9.57;;;1.83;;
43744;SDS011;29359;53.048;8.732;2023-02-03T07:51:53;6.53;;;2.20;;
43744;SDS011;29359;53.048;8.732;2023-02-03T07:53:56;9.80;;;1.60;;
43744;SDS011;29359;53.048;8.732;2023-02-03T07:55:58;9.00;;;1.88;;
43744;SDS011;29359;53.048;8.732;2023-02-03T07:58:03;8.27;;;2.03;;
43744;SDS011;29359;53.048;8.732;2023-02-03T08:00:05;5.00;;;1.40;;
43744;SDS011;29359;53.048;8.732;2023-02-03T08:02:07;5.93;;;1.67;;
43744;SDS011;29359;53.048;8.732;2023-02-03T08:04:11;9.07;;;1.52;;
43744;SDS011;29359;53.048;8.732;2023-02-03T08:06:16;6.90;;;1.60;;
43744;SDS011;29359;53.048;8.732;2023-02-03T08:08:18;10.63;;;1.98;;
43744;SDS011;29359;53.048;8.732;2023-02-03T08:10:19;7.70;;;1.88;;
43744;SDS011;29359;53.048;8.732;2023-02-03T08:12:21;8.70;;;1.90;;
43744;SDS011;29359;53.048;8.732;2023-02-03T08:14:22;11.50;;;2.10;;
43744;SDS011;29359;53.048;8.732;2023-02-03T08:16:24;7.25;;;2.15;;
43744;SDS011;29359;53.048;8.732;2023-02-03T08:18:25;8.75;;;1.98;;
43744;SDS011;29359;53.048;8.732;2023-02-03T08:20:27;4.40;;;1.42;;
43744;SDS011;29359;53.048;8.732;2023-02-03T08:22:29;10.15;;;2.08;;
43744;SDS011;29359;53.048;8.732;2023-02-03T08:24:30;7.43;;;1.75;;
43744;SDS011;29359;53.048;8.732;2023-02-03T08:26:32;11.45;;;2.75;;
43744;SDS011;29359;53.048;8.732;2023-02-03T08:28:33;8.70;;;1.95;;
43744;SDS011;29359;53.048;8.732;2023-02-03T08:30:35;10.00;;;1.92;;
43744;SDS011;29359;53.048;8.732;2023-02-03T08:32:36;9.23;;;1.90;;
43744;SDS011;29359;53.048;8.732;2023-02-03T08:34:38;9.73;;;2.28;;
43744;SDS011;29359;53.048;8.732;2023-02-03T08:36:40;10.50;;;2.08;;
43744;SDS011;29359;53.048;8.732;2023-02-03T08:38:43;9.90;;;1.77;;
43744;SDS011;29359;53.048;8.732;2023-02-03T08:40:44;10.63;;;1.95;;
43744;SDS011;29359;53.048;8.732;2023-02-03T08:42:46;15.20;;;2.45;;
43744;SDS011;29359;53.048;8.732;2023-02-03T08:44:47;10.65;;;2.38;;
43744;SDS011;29359;53.048;8.732;2023-02-03T08:46:49;18.15;;;1.75;;
43744;SDS011;29359;53.048;8.732;2023-02-03T08:48:52;8.93;;;2.00;;
43744;SDS011;29359;53.048;8.732;2023-02-03T08:50:56;14.13;;;2.42;;
43744;SDS011;29359;53.048;8.732;2023-02-03T08:52:58;11.68;;;1.88;;
43744;SDS011;29359;53.048;8.732;2023-02-03T08:55:00;14.10;;;2.65;;
43744;SDS011;29359;53.048;8.732;2023-02-03T08:57:01;10.15;;;2.05;;
43744;SDS011;29359;53.048;8.732;2023-02-03T08:59:03;16.20;;;2.55;;
43744;SDS011;29359;53.048;8.732;2023-02-03T09:01:06;10.40;;;1.83;;
43744;SDS011;29359;53.048;8.732;2023-02-03T09:03:09;16.25;;;2.90;;
43744;SDS011;29359;53.048;8.732;2023-02-03T09:05:10;13.48;;;2.08;;
43744;SDS011;29359;53.048;8.732;2023-02-03T09:07:12;17.20;;;2.25;;
43744;SDS011;29359;53.048;8.732;2023-02-03T09:09:14;11.93;;;2.65;;
43744;SDS011;29359;53.048;8.732;2023-02-03T09:11:16;11.75;;;2.42;;
43744;SDS011;29359;53.048;8.732;2023-02-03T09:13:18;6.78;;;1.90;;
43744;SDS011;29359;53.048;8.732;2023-02-03T09:15:20;15.85;;;2.55;;
43744;SDS011;29359;53.048;8.732;2023-02-03T09:17:21;11.52;;;2.00;;
43744;SDS011;29359;53.048;8.732;2023-02-03T09:19:23;14.25;;;1.83;;
43744;SDS011;29359;53.048;8.732;2023-02-03T09:21:24;5.25;;;1.70;;
43744;SDS011;29359;53.048;8.732;2023-02-03T09:23:37;6.32;;;1.27;;
43744;SDS011;29359;53.048;8.732;2023-02-03T09:25:40;12.48;;;1.60;;
43744;SDS011;29359;53.048;8.732;2023-02-03T09:27:46;8.48;;;2.45;;
43744;SDS011;29359;53.048;8.732;2023-02-03T09:29:47;13.43;;;2.30;;
43744;SDS011;29359;53.048;8.732;2023-02-03T09:31:49;7.07;;;1.90;;
43744;SDS011;29359;53.048;8.732;2023-02-03T09:33:53;11.77;;;1.75;;
43744;SDS011;29359;53.048;8.732;2023-02-03T09:35:55;10.40;;;2.25;;
43744;SDS011;29359;53.048;8.732;2023-02-03T09:37:57;8.02;;;1.38;;
43744;SDS011;29359;53.048;8.732;2023-02-03T09:40:00;10.00;;;2.38;;
43744;SDS011;29359;53.048;8.732;2023-02-03T09:42:08;7.65;;;1.88;;
43744;SDS011;29359;53.048;8.732;2023-02-03T09:46:39;8.07;;;1.77;;
43744;SDS011;29359;53.048;8.732;2023-02-03T09:48:48;11.15;;;2.60;;
43744;SDS011;29359;53.048;8.732;2023-02-03T09:50:54;16.38;;;2.22;;
43744;SDS011;29359;53.048;8.732;2023-02-03T09:52:56;13.18;;;1.73;;
43744;SDS011;29359;53.048;8.732;2023-02-03T09:57:34;12.95;;;2.58;;
43744;SDS011;29359;53.048;8.732;2023-02-03T09:59:42;22.23;;;3.05;;
43744;SDS011;29359;53.048;8.732;2023-02-03T10:04:31;15.13;;;2.13;;
43744;SDS011;29359;53.048;8.732;2023-02-03T10:06:40;13.88;;;2.90;;
43744;SDS011;29359;53.048;8.732;2023-02-03T10:10:56;17.75;;;2.45;;
43744;SDS011;29359;53.048;8.732;2023-02-03T10:15:36;18.15;;;3.13;;
43744;SDS011;29359;53.048;8.732;2023-02-03T10:17:42;11.63;;;2.83;;
43744;SDS011;29359;53.048;8.732;2023-02-03T10:22:14;17.40;;;2.95;;
43744;SDS011;29359;53.048;8.732;2023-02-03T10:24:21;19.58;;;3.80;;
43744;SDS011;29359;53.048;8.732;2023-02-03T10:26:44;18.17;;;3.78;;
43744;SDS011;29359;53.048;8.732;2023-02-03T10:28:50;19.77;;;2.38;;
43744;SDS011;29359;53.048;8.732;2023-02-03T10:30:57;27.70;;;4.32;;
43744;SDS011;29359;53.048;8.732;2023-02-03T10:33:01;17.38;;;2.92;;
43744;SDS011;29359;53.048;8.732;2023-02-03T10:35:11;28.88;;;4.75;;
43744;SDS011;29359;53.048;8.732;2023-02-03T10:37:29;23.98;;;3.75;;
43744;SDS011;29359;53.048;8.732;2023-02-03T10:41:44;24.30;;;4.38;;
43744;SDS011;29359;53.048;8.732;2023-02-03T10:43:45;19.52;;;3.42;;
43744;SDS011;29359;53.048;8.732;2023-02-03T10:45:51;18.15;;;3.85;;
43744;SDS011;29359;53.048;8.732;2023-02-03T10:47:54;32.25;;;4.38;;
43744;SDS011;29359;53.048;8.732;2023-02-03T10:49:56;21.58;;;3.30;;
43744;SDS011;29359;53.048;8.732;2023-02-03T10:51:59;12.32;;;2.58;;
43744;SDS011;29359;53.048;8.732;2023-02-03T10:54:09;18.70;;;3.17;;
43744;SDS011;29359;53.048;8.732;2023-02-03T10:56:31;26.50;;;3.50;;
43744;SDS011;29359;53.048;8.732;2023-02-03T10:58:38;15.00;;;2.72;;
43744;SDS011;29359;53.048;8.732;2023-02-03T11:00:47;35.95;;;5.82;;
43744;SDS011;29359;53.048;8.732;2023-02-03T11:05:09;24.40;;;3.70;;
43744;SDS011;29359;53.048;8.732;2023-02-03T11:07:24;26.90;;;3.58;;
43744;SDS011;29359;53.048;8.732;2023-02-03T11:09:40;24.80;;;3.90;;
43744;SDS011;29359;53.048;8.732;2023-02-03T11:11:43;24.15;;;3.90;;
43744;SDS011;29359;53.048;8.732;2023-02-03T11:13:44;11.73;;;2.08;;
43744;SDS011;29359;53.048;8.732;2023-02-03T11:17:47;17.98;;;3.25;;
43744;SDS011;29359;53.048;8.732;2023-02-03T11:19:49;26.27;;;4.28;;
43744;SDS011;29359;53.048;8.732;2023-02-03T11:21:53;26.15;;;4.00;;
43744;SDS011;29359;53.048;8.732;2023-02-03T11:26:14;21.63;;;3.30;;
43744;SDS011;29359;53.048;8.732;2023-02-03T11:28:19;18.67;;;4.43;;
43744;SDS011;29359;53.048;8.732;2023-02-03T11:30:23;20.88;;;3.72;;
43744;SDS011;29359;53.048;8.732;2023-02-03T11:32:31;19.95;;;3.47;;
43744;SDS011;29359;53.048;8.732;2023-02-03T11:34:36;23.42;;;3.53;;
43744;SDS011;29359;53.048;8.732;2023-02-03T11:36:39;19.05;;;3.67;;
43744;SDS011;29359;53.048;8.732;2023-02-03T11:38:41;31.17;;;4.82;;
43744;SDS011;29359;53.048;8.732;2023-02-03T11:40:44;17.70;;;3.35;;
43744;SDS011;29359;53.048;8.732;2023-02-03T11:44:50;22.77;;;3.97;;
43744;SDS011;29359;53.048;8.732;2023-02-03T11:47:11;20.70;;;4.28;;
43744;SDS011;29359;53.048;8.732;2023-02-03T11:51:55;21.73;;;3.85;;
43744;SDS011;29359;53.048;8.732;2023-02-03T11:54:16;20.15;;;3.90;;
43744;SDS011;29359;53.048;8.732;2023-02-03T11:58:59;26.23;;;4.53;;
43744;SDS011;29359;53.048;8.732;2023-02-03T12:03:17;20.65;;;3.45;;
43744;SDS011;29359;53.048;8.732;2023-02-03T12:22:59;20.30;;;3.40;;
43744;SDS011;29359;53.048;8.732;2023-02-03T12:27:47;19.95;;;3.35;;
43744;SDS011;29359;53.048;8.732;2023-02-03T12:29:57;22.42;;;4.05;;
43744;SDS011;29359;53.048;8.732;2023-02-03T12:34:31;19.40;;;3.38;;
43744;SDS011;29359;53.048;8.732;2023-02-03T12:36:39;21.38;;;3.55;;
43744;SDS011;29359;53.048;8.732;2023-02-03T12:38:55;14.55;;;3.22;;
43744;SDS011;29359;53.048;8.732;2023-02-03T12:40:58;17.77;;;3.38;;
43744;SDS011;29359;53.048;8.732;2023-02-03T12:45:28;27.17;;;4.60;;
43744;SDS011;29359;53.048;8.732;2023-02-03T12:47:37;23.65;;;3.58;;
43744;SDS011;29359;53.048;8.732;2023-02-03T12:49:46;21.27;;;4.15;;
43744;SDS011;29359;53.048;8.732;2023-02-03T12:51:54;15.00;;;3.22;;
43744;SDS011;29359;53.048;8.732;2023-02-03T12:56:25;13.40;;;2.95;;
43744;SDS011;29359;53.048;8.732;2023-02-03T12:58:34;16.83;;;2.90;;
43744;SDS011;29359;53.048;8.732;2023-02-03T13:00:48;11.40;;;2.25;;
43744;SDS011;29359;53.048;8.732;2023-02-03T13:03:05;20.38;;;4.18;;
43744;SDS011;29359;53.048;8.732;2023-02-03T13:05:13;21.02;;;3.45;;
43744;SDS011;29359;53.048;8.732;2023-02-03T13:12:11;21.20;;;2.95;;
43744;SDS011;29359;53.048;8.732;2023-02-03T13:14:28;20.65;;;3.17;;
43744;SDS011;29359;53.048;8.732;2023-02-03T13:16:36;21.52;;;3.25;;
43744;SDS011;29359;53.048;8.732;2023-02-03T13:18:44;14.90;;;2.88;;
43744;SDS011;29359;53.048;8.732;2023-02-03T13:20:50;8.10;;;1.90;;
43744;SDS011;29359;53.048;8.732;2023-02-03T13:22:51;16.17;;;3.33;;
43744;SDS011;29359;53.048;8.732;2023-02-03T13:24:59;13.73;;;2.88;;
43744;SDS011;29359;53.048;8.732;2023-02-03T13:27:54;17.02;;;3.85;;
43744;SDS011;29359;53.048;8.732;2023-02-03T13:38:44;22.90;;;4.07;;
43744;SDS011;29359;53.048;8.732;2023-02-03T13:43:20;22.48;;;4.18;;
43744;SDS011;29359;53.048;8.732;2023-02-03T13:45:39;22.45;;;3.55;;
43744;SDS011;29359;53.048;8.732;2023-02-03T13:47:46;34.10;;;4.72;;
43744;SDS011;29359;53.048;8.732;2023-02-03T13:49:53;14.35;;;3.03;;
43744;SDS011;29359;53.048;8.732;2023-02-03T13:52:00;21.05;;;3.45;;
43744;SDS011;29359;53.048;8.732;2023-02-03T13:54:05;13.77;;;2.47;;
43744;SDS011;29359;53.048;8.732;2023-02-03T13:56:22;21.05;;;3.20;;
43744;SDS011;29359;53.048;8.732;2023-02-03T13:58:29;27.55;;;3.95;;
43744;SDS011;29359;53.048;8.732;2023-02-03T14:02:46;19.77;;;3.45;;
43744;SDS011;29359;53.048;8.732;2023-02-03T14:04:54;19.73;;;3.38;;
43744;SDS011;29359;53.048;8.732;2023-02-03T14:06:59;12.75;;;2.85;;
43744;SDS011;29359;53.048;8.732;2023-02-03T14:09:16;18.35;;;3.22;;
43744;SDS011;29359;53.048;8.732;2023-02-03T14:13:37;25.65;;;3.67;;
43744;SDS011;29359;53.048;8.732;2023-02-03T14:15:39;16.95;;;3.38;;